createdAt,value
2023-10-23T00:00:14.622Z,91.20
2023-10-23T00:03:22.927Z,92.32
2023-10-23T00:05:56.416Z,92.00
2023-10-23T00:08:28.844Z,91.29
2023-10-23T00:11:01.459Z,90.95
2023-10-23T00:13:36.151Z,91.20
2023-10-23T00:16:12.553Z,91.42
2023-10-23T00:18:45.711Z,91.97
2023-10-23T00:21:20.581Z,92.15
2023-10-23T00:23:52.934Z,91.80
2023-10-23T00:26:26.314Z,91.86
2023-10-23T00:28:58.715Z,91.61
2023-10-23T00:31:35.297Z,91.76
2023-10-23T00:34:07.661Z,92.14
2023-10-23T00:36:40.859Z,92.49
2023-10-23T00:39:12.783Z,93.58
2023-10-23T00:41:46.030Z,93.91
2023-10-23T00:44:20.694Z,94.33
2023-10-23T00:47:01.158Z,94.58
2023-10-23T00:50:10.536Z,94.08
2023-10-23T00:52:49.350Z,93.99
2023-10-23T00:55:25.910Z,94.80
2023-10-23T00:58:16.288Z,94.54
2023-10-23T01:00:52.466Z,94.69
2023-10-23T01:03:33.377Z,94.19
2023-10-23T01:06:14.880Z,94.61
2023-10-23T01:08:50.500Z,94.28
2023-10-23T01:11:22.870Z,94.84
2023-10-23T01:13:55.156Z,95.00
2023-10-23T01:16:28.168Z,95.43
2023-10-23T01:19:03.474Z,95.56
2023-10-23T01:21:35.544Z,95.20
2023-10-23T01:24:12.210Z,95.61
2023-10-23T01:26:52.614Z,96.47
2023-10-23T01:29:24.750Z,97.00
2023-10-23T01:31:56.933Z,96.98
2023-10-23T01:34:29.244Z,97.07
2023-10-23T01:37:01.827Z,97.45
2023-10-23T01:39:34.153Z,97.35
2023-10-23T01:42:09.852Z,97.32
2023-10-23T01:44:42.537Z,97.29
2023-10-23T01:47:16.085Z,97.93
2023-10-23T01:49:49.262Z,98.38
2023-10-23T01:52:21.884Z,98.35
2023-10-23T01:54:55.537Z,98.10
2023-10-23T01:57:31.436Z,98.31
2023-10-23T02:00:07.400Z,98.17
2023-10-23T02:02:39.667Z,98.77
2023-10-23T02:05:12.901Z,99.26
2023-10-23T02:07:44.762Z,99.72
2023-10-23T02:10:17.044Z,99.79
2023-10-23T02:12:52.881Z,100.00
2023-10-23T02:15:25.245Z,100.00
2023-10-23T02:17:57.543Z,100.00
2023-10-23T02:20:30.914Z,100.00
2023-10-23T02:23:03.368Z,100.00
2023-10-23T02:25:35.763Z,100.00
2023-10-23T02:28:10.506Z,100.00
2023-10-23T02:30:43.423Z,100.00
2023-10-23T02:33:15.786Z,100.00
2023-10-23T02:35:48.319Z,99.84
2023-10-23T02:38:20.661Z,99.95
2023-10-23T02:40:56.168Z,99.36
2023-10-23T02:43:31.527Z,99.39
2023-10-23T02:46:06.119Z,99.19
2023-10-23T02:48:38.462Z,98.69
2023-10-23T02:51:11.011Z,99.08
2023-10-23T02:53:43.336Z,98.88
2023-10-23T02:56:16.950Z,98.88
2023-10-23T02:58:52.217Z,99.15
2023-10-23T03:01:26.932Z,99.12
2023-10-23T03:03:59.494Z,99.42
2023-10-23T03:06:32.361Z,99.68
2023-10-23T03:09:06.810Z,99.67
2023-10-23T03:11:40.947Z,99.43
2023-10-23T03:14:15.885Z,99.02
2023-10-23T03:16:48.815Z,98.77
2023-10-23T03:19:23.992Z,98.99
2023-10-23T03:21:57.924Z,99.23
2023-10-23T03:24:30.109Z,98.88
2023-10-23T03:27:02.282Z,99.07
2023-10-23T03:29:37.008Z,99.61
2023-10-23T03:32:10.668Z,99.43
2023-10-23T03:34:42.567Z,99.69
2023-10-23T03:37:16.343Z,99.25
2023-10-23T03:39:48.790Z,99.42
2023-10-23T03:42:22.242Z,99.59
2023-10-23T03:45:04.005Z,99.57
2023-10-23T03:47:41.732Z,99.74
2023-10-23T03:50:14.289Z,100.00
2023-10-23T03:52:46.598Z,100.00
2023-10-23T03:55:20.681Z,100.00
2023-10-23T03:57:54.051Z,100.00
2023-10-23T04:00:29.064Z,100.00
2023-10-23T04:03:01.561Z,100.00
2023-10-23T04:05:35.516Z,100.00
2023-10-23T04:08:08.116Z,100.00
2023-10-23T04:10:40.119Z,100.00
2023-10-23T04:13:12.296Z,100.00
2023-10-23T04:15:56.894Z,100.00
2023-10-23T04:18:29.223Z,100.00
2023-10-23T04:21:08.846Z,100.00
2023-10-23T04:23:42.655Z,100.00
2023-10-23T04:26:15.246Z,100.00
2023-10-23T04:28:47.671Z,100.00
2023-10-23T04:31:22.380Z,100.00
2023-10-23T04:33:54.739Z,100.00
2023-10-23T04:36:31.107Z,100.00
2023-10-23T04:39:04.173Z,100.00
2023-10-23T04:41:37.480Z,100.00
2023-10-23T04:44:14.323Z,100.00
2023-10-23T04:46:56.063Z,100.00
2023-10-23T04:49:28.557Z,100.00
2023-10-23T04:52:04.347Z,100.00
2023-10-23T04:54:41.492Z,100.00
2023-10-23T04:57:18.057Z,100.00
2023-10-23T04:59:50.359Z,100.00
2023-10-23T05:02:25.418Z,100.00
2023-10-23T05:04:57.684Z,100.00
2023-10-23T05:07:33.160Z,100.00
2023-10-23T05:10:07.113Z,100.00
2023-10-23T05:12:40.428Z,100.00
2023-10-23T05:15:26.379Z,100.00
2023-10-23T05:18:03.531Z,100.00
2023-10-23T05:20:45.146Z,100.00
2023-10-23T05:23:26.747Z,100.00
2023-10-23T05:26:03.082Z,100.00
2023-10-23T05:28:38.447Z,100.00
2023-10-23T05:31:12.327Z,100.00
2023-10-23T05:33:53.472Z,100.00
2023-10-23T05:36:27.885Z,100.00
2023-10-23T05:39:08.714Z,100.00
2023-10-23T05:41:41.712Z,100.00
2023-10-23T05:44:13.999Z,100.00
2023-10-23T05:46:47.399Z,100.00
2023-10-23T05:49:21.912Z,100.00
2023-10-23T05:51:54.074Z,100.00
2023-10-23T05:54:32.338Z,100.00
2023-10-23T05:57:05.232Z,100.00
2023-10-23T05:59:41.360Z,100.00
2023-10-23T06:02:15.676Z,100.00
2023-10-23T06:04:51.787Z,100.00
2023-10-23T06:07:23.951Z,100.00
2023-10-23T06:09:58.010Z,100.00
2023-10-23T06:12:33.107Z,100.00
2023-10-23T06:15:06.326Z,100.00
2023-10-23T06:17:46.057Z,100.00
2023-10-23T06:20:20.735Z,100.00
2023-10-23T06:23:10.294Z,100.00
2023-10-23T06:25:42.425Z,100.00
2023-10-23T06:28:14.682Z,100.00
2023-10-23T06:30:48.826Z,100.00
2023-10-23T06:33:22.326Z,100.00
2023-10-23T06:36:05.138Z,100.00
2023-10-23T06:38:37.976Z,100.00
2023-10-23T06:41:10.753Z,100.00
2023-10-23T06:43:43.249Z,100.00
2023-10-23T06:46:15.577Z,100.00
2023-10-23T06:48:48.748Z,100.00
2023-10-23T06:51:23.345Z,100.00
2023-10-23T06:53:56.146Z,100.00
2023-10-23T06:56:35.120Z,100.00
2023-10-23T06:59:07.451Z,100.00
2023-10-23T07:01:46.201Z,100.00
2023-10-23T07:04:25.569Z,100.00
2023-10-23T07:07:10.907Z,100.00
2023-10-23T07:09:54.900Z,100.00
2023-10-23T07:12:26.932Z,100.00
2023-10-23T07:15:00.190Z,100.00
2023-10-23T07:17:33.588Z,98.39
2023-10-23T07:20:08.602Z,99.55
2023-10-23T07:22:43.163Z,100.00
2023-10-23T07:25:21.005Z,100.00
2023-10-23T07:28:02.690Z,100.00
2023-10-23T07:30:34.918Z,99.24
2023-10-23T07:33:07.238Z,100.00
2023-10-23T07:35:52.632Z,100.00
2023-10-23T07:38:29.299Z,100.00
2023-10-23T07:41:02.622Z,100.00
2023-10-23T07:43:50.857Z,100.00
2023-10-23T07:47:09.867Z,100.00
2023-10-23T07:49:56.493Z,100.00
2023-10-23T07:52:42.015Z,100.00
2023-10-23T07:55:17.554Z,100.00
2023-10-23T07:57:55.493Z,99.92
2023-10-23T08:00:30.335Z,99.68
2023-10-23T08:03:07.323Z,98.70
2023-10-23T08:06:00.881Z,98.99
2023-10-23T08:08:45.806Z,100.00
2023-10-23T08:11:22.767Z,100.00
2023-10-23T08:13:55.764Z,99.23
2023-10-23T08:16:41.134Z,99.29
2023-10-23T08:19:14.540Z,97.83
2023-10-23T08:21:58.861Z,97.15
2023-10-23T08:24:50.080Z,96.64
2023-10-23T08:27:39.801Z,96.53
2023-10-23T08:30:17.204Z,99.00
2023-10-23T08:32:53.215Z,96.65
2023-10-23T08:35:33.887Z,97.59
2023-10-23T08:38:09.326Z,96.63
2023-10-23T08:40:47.323Z,96.94
2023-10-23T08:43:23.841Z,98.00
2023-10-23T08:45:58.745Z,95.26
2023-10-23T08:48:33.642Z,95.49
2023-10-23T08:51:08.661Z,93.70
2023-10-23T08:57:18.644Z,93.14
2023-10-23T08:59:58.963Z,93.19
2023-10-23T09:02:52.060Z,94.73
2023-10-23T09:05:45.841Z,94.73
2023-10-23T09:08:29.047Z,92.43
2023-10-23T09:11:06.323Z,91.42
2023-10-23T09:13:40.325Z,93.47
2023-10-23T09:16:18.178Z,91.91
2023-10-23T09:19:07.308Z,91.25
2023-10-23T09:21:39.567Z,90.52
2023-10-23T09:24:15.493Z,91.09
2023-10-23T09:26:54.162Z,90.81
2023-10-23T09:29:27.765Z,90.99
2023-10-23T09:32:04.883Z,89.57
2023-10-23T09:34:38.244Z,88.47
2023-10-23T09:37:11.269Z,89.49
2023-10-23T09:39:49.403Z,88.21
2023-10-23T09:42:42.243Z,87.30
2023-10-23T09:45:17.962Z,85.79
2023-10-23T09:48:02.780Z,86.02
2023-10-23T09:51:07.404Z,88.33
2023-10-23T09:54:32.085Z,86.18
2023-10-23T09:57:35.804Z,86.36
2023-10-23T10:00:20.963Z,85.08
2023-10-23T10:03:21.539Z,82.40
2023-10-23T10:07:00.850Z,80.83
2023-10-23T10:10:03.229Z,79.23
2023-10-23T10:13:15.092Z,80.09
2023-10-23T10:16:09.939Z,78.22
2023-10-23T10:20:37.967Z,80.65
2023-10-23T10:23:14.612Z,79.69
2023-10-23T10:27:02.242Z,77.71
2023-10-23T10:29:46.524Z,77.38
2023-10-23T10:32:31.239Z,77.80
2023-10-23T10:35:45.158Z,77.48
2023-10-23T10:38:36.647Z,76.75
2023-10-23T10:41:40.802Z,77.36
2023-10-23T10:44:24.446Z,79.37
2023-10-23T10:47:03.263Z,77.18
2023-10-23T10:49:36.171Z,80.37
2023-10-23T10:52:59.169Z,80.12
2023-10-23T10:56:27.689Z,80.29
2023-10-23T10:59:46.217Z,77.58
2023-10-23T11:02:36.609Z,76.20
2023-10-23T11:05:40.257Z,75.55
2023-10-23T11:08:35.731Z,77.88
2023-10-23T11:11:14.690Z,74.45
2023-10-23T11:13:48.448Z,76.41
2023-10-23T11:16:31.820Z,73.84
2023-10-23T11:19:09.810Z,78.60
2023-10-23T11:22:12.479Z,76.46
2023-10-23T11:24:47.992Z,78.33
2023-10-23T11:27:25.207Z,78.03
2023-10-23T11:30:05.252Z,77.31
2023-10-23T11:32:38.749Z,76.49
2023-10-23T11:35:13.061Z,77.63
2023-10-23T11:37:49.489Z,75.91
2023-10-23T11:40:28.417Z,75.30
2023-10-23T11:43:17.507Z,76.62
2023-10-23T11:45:57.516Z,77.18
2023-10-23T11:48:41.008Z,76.71
2023-10-23T11:51:45.844Z,75.46
2023-10-23T11:54:36.411Z,75.21
2023-10-23T11:57:11.052Z,77.82
2023-10-23T11:59:54.749Z,76.97
2023-10-23T12:02:30.726Z,79.04
2023-10-23T12:05:08.824Z,76.40
2023-10-23T12:07:47.057Z,76.33
2023-10-23T12:10:43.069Z,77.91
2023-10-23T12:13:15.705Z,79.11
2023-10-23T12:15:58.432Z,76.28
2023-10-23T12:18:31.687Z,76.12
2023-10-23T12:21:06.690Z,77.12
2023-10-23T12:23:40.573Z,79.70
2023-10-23T12:26:13.528Z,77.23
2023-10-23T12:28:46.689Z,77.14
2023-10-23T12:32:01.588Z,78.57
2023-10-23T12:34:46.414Z,76.10
2023-10-23T12:37:43.449Z,76.45
2023-10-23T12:40:50.543Z,77.30
2023-10-23T12:43:34.092Z,79.48
2023-10-23T12:46:22.040Z,79.49
2023-10-23T12:49:50.372Z,77.96
2023-10-23T12:52:40.717Z,79.27
2023-10-23T12:55:23.041Z,75.73
2023-10-23T12:58:09.125Z,76.93
2023-10-23T13:01:03.923Z,73.88
2023-10-23T13:03:48.321Z,72.37
2023-10-23T13:06:46.139Z,74.28
2023-10-23T13:09:20.781Z,73.46
2023-10-23T13:12:41.213Z,72.92
2023-10-23T13:15:22.302Z,72.27
2023-10-23T13:17:57.797Z,70.90
2023-10-23T13:21:27.307Z,70.15
2023-10-23T13:23:25.060Z,70.00
2023-10-23T13:26:10.123Z,70.38
2023-10-23T13:28:49.435Z,71.51
2023-10-23T13:31:23.608Z,71.02
2023-10-23T13:33:56.680Z,71.58
2023-10-23T13:36:28.768Z,70.88
2023-10-23T13:39:07.674Z,70.56
2023-10-23T13:41:39.894Z,70.75
2023-10-23T13:44:12.659Z,70.96
2023-10-23T13:46:45.406Z,70.69
2023-10-23T13:49:39.643Z,70.36
2023-10-23T13:52:27.533Z,69.30
2023-10-23T13:55:17.071Z,67.45
2023-10-23T13:57:49.656Z,68.07
2023-10-23T14:00:23.550Z,69.55
2023-10-23T14:03:05.784Z,67.22
2023-10-23T14:05:52.649Z,69.30
2023-10-23T14:08:31.976Z,68.19
2023-10-23T14:11:59.525Z,68.65
2023-10-23T14:14:25.052Z,68.53
2023-10-23T14:16:58.507Z,68.39
2023-10-23T14:19:45.546Z,68.83
2023-10-23T14:22:32.688Z,69.02
2023-10-23T14:25:11.381Z,68.68
2023-10-23T14:27:46.936Z,70.65
2023-10-23T14:30:21.820Z,70.34
2023-10-23T14:32:55.651Z,70.11
2023-10-23T14:35:48.056Z,71.30
2023-10-23T14:38:25.115Z,71.69
2023-10-23T14:41:21.905Z,71.91
2023-10-23T14:43:57.335Z,70.54
2023-10-23T14:46:29.931Z,70.97
2023-10-23T14:49:04.828Z,71.26
2023-10-23T14:51:43.443Z,71.56
2023-10-23T14:54:22.529Z,72.06
2023-10-23T14:57:04.401Z,71.33
2023-10-23T22:07:51.809Z,91.45
2023-10-23T22:10:29.021Z,91.80
2023-10-23T22:13:02.834Z,91.46
2023-10-23T22:15:36.126Z,91.35
2023-10-23T22:18:10.763Z,91.11
2023-10-23T22:20:43.667Z,91.10
2023-10-23T22:23:19.732Z,91.38
2023-10-23T22:25:57.052Z,91.71
2023-10-23T22:28:32.145Z,90.86
2023-10-23T22:31:06.321Z,90.95
2023-10-23T22:33:40.138Z,90.92
2023-10-23T22:36:13.751Z,91.40
2023-10-23T22:38:50.260Z,91.06
2023-10-23T22:41:24.040Z,91.20
2023-10-23T22:43:56.297Z,91.08
2023-10-23T22:46:29.188Z,91.15
2023-10-23T22:49:01.683Z,91.54
2023-10-23T22:51:36.979Z,91.34
2023-10-23T22:54:13.035Z,91.30
2023-10-23T22:56:46.557Z,91.51
2023-10-23T22:59:19.578Z,90.91
2023-10-23T23:01:53.082Z,90.54
2023-10-23T23:04:26.807Z,90.91
2023-10-23T23:07:04.441Z,90.92
2023-10-23T23:09:41.932Z,90.70
2023-10-23T23:12:16.541Z,90.70
2023-10-23T23:14:51.521Z,90.53
2023-10-23T23:20:29.549Z,90.38
2023-10-23T23:23:04.096Z,90.25
2023-10-23T23:25:39.419Z,90.31
2023-10-23T23:28:12.622Z,90.46
2023-10-23T23:30:46.006Z,90.07
2023-10-23T23:33:19.457Z,90.16
2023-10-23T23:35:54.501Z,90.21
2023-10-23T23:38:27.974Z,90.02
2023-10-23T23:41:02.553Z,90.23
2023-10-23T23:43:37.074Z,90.49
2023-10-23T23:46:09.597Z,90.40
2023-10-23T23:48:41.808Z,91.05
2023-10-23T23:51:15.868Z,91.21
2023-10-23T23:53:48.246Z,91.42
2023-10-23T23:56:22.746Z,91.45
2023-10-23T23:58:54.823Z,91.23
